Time;durP1;ratioP1;P1;durP2;ratioP2;P2;SDS_P1;SDS_P2;PMS_P1;PMS_P2;Temp;Humidity;BMP_temperature;BMP_pressure;BME280_temperature;BME280_humidity;BME280_pressure;Samples;Min_cycle;Max_cycle;Signal;HPM_P1;HPM_P2
2022/07/09 00:02:35;;;;;;;3.10;2.50;;;13.90;99.90;;;;;;5048545;28;20044;-72
2022/07/09 00:05:07;;;;;;;3.42;2.55;;;13.80;99.90;;;;;;5049472;28;20048;-72
2022/07/09 00:07:40;;;;;;;4.13;2.17;;;13.70;99.90;;;;;;5031932;28;20544;-72
2022/07/09 00:10:12;;;;;;;2.53;2.10;;;13.70;99.90;;;;;;5050094;28;20713;-72
2022/07/09 00:12:43;;;;;;;2.83;1.98;;;13.50;99.90;;;;;;5031115;28;20029;-72
2022/07/09 00:15:15;;;;;;;3.85;2.47;;;13.50;99.90;;;;;;5047741;28;20044;-71
2022/07/09 00:17:47;;;;;;;5.63;3.15;;;13.50;99.90;;;;;;5046203;28;20076;-72
2022/07/09 00:20:19;;;;;;;2.70;2.08;;;13.30;99.90;;;;;;5032890;28;20408;-71
2022/07/09 00:22:50;;;;;;;2.75;1.98;;;13.20;99.90;;;;;;5048488;28;20517;-72
2022/07/09 00:25:22;;;;;;;3.70;2.10;;;13.20;99.90;;;;;;5033227;28;20041;-71
2022/07/09 00:27:54;;;;;;;4.53;1.90;;;13.20;99.90;;;;;;5031160;28;20053;-71
2022/07/09 00:30:26;;;;;;;3.80;2.13;;;13.30;99.90;;;;;;5051520;28;20041;-72
2022/07/09 00:32:58;;;;;;;5.45;2.45;;;13.30;99.90;;;;;;5050131;28;20056;-72
2022/07/09 00:35:30;;;;;;;3.58;1.83;;;13.20;99.90;;;;;;5050031;28;20036;-72
2022/07/09 00:38:02;;;;;;;4.38;2.20;;;13.30;99.90;;;;;;5049659;28;20059;-72
2022/07/09 00:40:34;;;;;;;5.57;2.40;;;13.30;99.90;;;;;;5051550;28;20048;-72
2022/07/09 00:43:19;;;;;;;5.00;2.00;;;13.20;99.90;;;;;;5038558;28;20045;-71
2022/07/09 00:45:51;;;;;;;2.75;1.80;;;13.20;99.90;;;;;;5050871;28;20403;-72
2022/07/09 00:48:23;;;;;;;2.25;1.80;;;13.20;99.90;;;;;;5047224;28;20044;-72
2022/07/09 00:50:55;;;;;;;3.58;1.75;;;13.20;99.90;;;;;;5017768;28;20147;-72
2022/07/09 00:53:27;;;;;;;3.08;2.45;;;13.10;99.90;;;;;;5049681;28;20041;-71
2022/07/09 00:56:00;;;;;;;3.65;1.80;;;13.20;99.90;;;;;;5031890;28;20051;-72
2022/07/09 00:58:34;;;;;;;3.42;1.90;;;13.20;99.90;;;;;;5018256;28;20106;-71
2022/07/09 01:01:06;;;;;;;3.28;2.15;;;13.20;99.90;;;;;;5049740;28;20063;-72
2022/07/09 01:03:38;;;;;;;5.75;2.13;;;13.10;99.90;;;;;;5044539;28;20471;-72
2022/07/09 01:06:10;;;;;;;3.15;2.17;;;13.00;99.90;;;;;;5050048;28;20041;-72
2022/07/09 01:08:41;;;;;;;2.42;1.95;;;13.00;99.90;;;;;;5050592;28;20036;-72
2022/07/09 01:11:14;;;;;;;5.57;2.33;;;13.00;99.90;;;;;;5039475;28;20421;-73
2022/07/09 01:13:46;;;;;;;3.87;2.13;;;13.00;99.90;;;;;;5047913;28;20049;-72
2022/07/09 01:16:18;;;;;;;3.70;1.90;;;13.00;99.90;;;;;;5049025;28;20057;-72
2022/07/09 01:18:49;;;;;;;4.65;2.20;;;13.00;99.90;;;;;;5036291;28;20386;-72
2022/07/09 01:21:21;;;;;;;3.17;1.92;;;12.90;99.90;;;;;;5022229;28;20063;-71
2022/07/09 01:23:53;;;;;;;3.58;2.17;;;12.90;99.90;;;;;;5048785;28;20045;-72
2022/07/09 01:26:25;;;;;;;4.18;2.25;;;12.80;99.90;;;;;;5029185;28;20041;-71
2022/07/09 01:28:56;;;;;;;3.00;1.92;;;12.80;99.90;;;;;;5049198;28;20815;-71
2022/07/09 01:31:23;;;;;;;3.47;2.00;;;12.90;99.90;;;;;;5035007;28;20041;-72
2022/07/09 01:33:55;;;;;;;4.25;1.90;;;12.80;99.90;;;;;;5031081;28;20254;-72
2022/07/09 01:36:26;;;;;;;5.68;2.13;;;12.80;99.90;;;;;;5030775;28;20049;-72
2022/07/09 01:38:58;;;;;;;3.33;1.95;;;12.80;99.90;;;;;;5026816;28;20048;-72
2022/07/09 01:41:33;;;;;;;6.43;2.08;;;12.80;99.90;;;;;;5047965;28;20053;-72
2022/07/09 01:44:06;;;;;;;4.60;2.10;;;12.80;99.90;;;;;;5031496;28;20071;-72
2022/07/09 01:46:38;;;;;;;3.17;2.22;;;12.70;99.90;;;;;;5032244;28;20080;-72
2022/07/09 01:49:10;;;;;;;5.03;2.35;;;12.70;99.90;;;;;;5033225;28;20492;-72
2022/07/09 01:51:41;;;;;;;4.03;2.30;;;12.70;99.90;;;;;;5052946;28;20167;-72
2022/07/09 01:54:13;;;;;;;3.17;1.98;;;12.70;99.90;;;;;;5051712;28;20045;-72
2022/07/09 01:56:45;;;;;;;3.45;2.38;;;12.70;99.90;;;;;;5053959;28;20072;-72
2022/07/09 01:59:17;;;;;;;8.20;2.72;;;12.70;99.90;;;;;;5035289;28;20142;-72
2022/07/09 02:01:48;;;;;;;5.03;2.00;;;12.70;99.90;;;;;;5051237;28;20048;-72
2022/07/09 02:04:20;;;;;;;3.03;2.25;;;12.70;99.90;;;;;;5051868;28;20043;-72
2022/07/09 02:06:52;;;;;;;2.97;1.90;;;12.60;99.90;;;;;;5053653;28;20033;-72
2022/07/09 02:09:24;;;;;;;4.22;1.98;;;12.50;99.90;;;;;;5053913;28;20046;-71
2022/07/09 02:11:56;;;;;;;5.05;2.10;;;12.50;99.90;;;;;;5046078;28;20135;-72
2022/07/09 02:14:27;;;;;;;5.63;2.00;;;12.60;99.90;;;;;;5052996;28;20079;-72
2022/07/09 02:16:54;;;;;;;4.18;1.92;;;12.60;99.90;;;;;;5034553;28;20051;-72
2022/07/09 02:19:26;;;;;;;4.47;2.05;;;12.50;99.90;;;;;;5044870;28;20045;-72
2022/07/09 02:21:57;;;;;;;3.13;2.13;;;12.50;99.90;;;;;;5048399;28;20140;-72
2022/07/09 02:24:29;;;;;;;3.40;2.17;;;12.50;99.90;;;;;;5034937;28;20037;-72
2022/07/09 02:27:01;;;;;;;2.78;2.30;;;12.60;99.90;;;;;;5035474;28;20049;-72
2022/07/09 02:29:27;;;;;;;5.00;4.10;;;12.60;99.90;;;;;;5053724;28;20515;-72
2022/07/09 02:31:59;;;;;;;3.78;2.72;;;12.70;99.90;;;;;;5036872;28;20255;-72
2022/07/09 02:34:31;;;;;;;3.78;3.05;;;12.70;99.90;;;;;;5052743;28;20044;-72
2022/07/09 02:37:04;;;;;;;4.93;3.05;;;12.70;99.90;;;;;;5036346;28;20508;-72
2022/07/09 02:39:36;;;;;;;4.65;3.15;;;12.70;99.90;;;;;;5053491;28;20508;-72
2022/07/09 02:42:08;;;;;;;4.63;3.30;;;12.70;99.90;;;;;;5043303;28;20056;-72
2022/07/09 02:44:43;;;;;;;4.30;3.38;;;12.70;99.90;;;;;;5040074;28;20040;-72
2022/07/09 02:47:15;;;;;;;4.75;3.67;;;12.70;99.90;;;;;;5034592;28;20088;-72
2022/07/09 02:49:46;;;;;;;5.72;3.38;;;12.60;99.90;;;;;;5036263;28;20052;-71
2022/07/09 02:52:18;;;;;;;4.97;3.65;;;12.60;99.90;;;;;;5073442;28;20052;-72
2022/07/09 02:54:50;;;;;;;3.78;3.40;;;12.50;99.90;;;;;;5072448;28;20105;-71
2022/07/09 02:57:21;;;;;;;4.78;3.60;;;12.40;99.90;;;;;;5053823;28;20057;-72
2022/07/09 02:59:53;;;;;;;5.05;3.00;;;12.40;99.90;;;;;;5042564;28;20056;-72
2022/07/09 03:02:25;;;;;;;4.72;2.42;;;12.40;99.90;;;;;;5036185;28;20049;-72
2022/07/09 03:04:56;;;;;;;4.28;2.50;;;12.40;99.90;;;;;;5018558;28;20041;-72
2022/07/09 03:07:29;;;;;;;4.38;2.78;;;12.40;99.90;;;;;;5050131;28;20068;-72
2022/07/09 03:10:00;;;;;;;3.28;2.75;;;12.40;99.90;;;;;;5052729;28;20456;-72
2022/07/09 03:12:32;;;;;;;4.32;2.75;;;12.40;99.90;;;;;;5048915;28;20052;-72
2022/07/09 03:15:05;;;;;;;3.75;2.88;;;12.40;99.90;;;;;;5034001;28;20408;-71
2022/07/09 03:17:37;;;;;;;4.70;3.90;;;12.50;99.90;;;;;;5050442;28;20056;-72
2022/07/09 03:20:10;;;;;;;4.55;3.50;;;12.40;99.90;;;;;;5050833;28;20390;-72
2022/07/09 03:22:41;;;;;;;4.55;3.95;;;12.40;99.90;;;;;;5043827;28;20132;-71
2022/07/09 03:25:13;;;;;;;7.07;3.60;;;12.40;99.90;;;;;;5047952;28;20041;-72
2022/07/09 03:27:45;;;;;;;4.22;3.83;;;12.40;99.90;;;;;;5052563;28;20068;-71
2022/07/09 03:30:17;;;;;;;4.18;3.65;;;12.40;99.90;;;;;;5035813;28;20045;-72
2022/07/09 03:32:48;;;;;;;5.82;4.13;;;12.50;99.90;;;;;;5050942;28;20036;-72
2022/07/09 03:35:20;;;;;;;6.72;3.55;;;12.50;99.90;;;;;;5052279;28;20396;-71
2022/07/09 03:37:47;;;;;;;4.70;3.63;;;12.50;99.90;;;;;;5052204;28;20037;-72
2022/07/09 03:40:18;;;;;;;7.50;3.55;;;12.50;99.90;;;;;;5052595;28;20045;-72
2022/07/09 03:42:50;;;;;;;5.10;3.45;;;12.50;99.90;;;;;;5034116;28;20051;-72
2022/07/09 03:45:22;;;;;;;5.05;3.60;;;12.60;99.90;;;;;;5043971;28;20489;-72
2022/07/09 03:47:54;;;;;;;5.13;3.42;;;12.70;99.90;;;;;;5052228;28;20045;-72
2022/07/09 03:50:25;;;;;;;9.07;3.90;;;12.70;99.90;;;;;;5035334;28;20047;-72
2022/07/09 03:52:57;;;;;;;4.55;3.33;;;12.70;99.90;;;;;;5047959;28;20043;-72
2022/07/09 03:55:29;;;;;;;5.72;3.42;;;12.70;99.90;;;;;;5033783;28;20408;-72
2022/07/09 03:58:01;;;;;;;5.13;4.18;;;12.80;99.90;;;;;;5052361;28;20509;-72
2022/07/09 04:00:33;;;;;;;4.55;3.70;;;12.80;99.90;;;;;;5050745;28;20049;-72
2022/07/09 04:03:04;;;;;;;6.00;3.47;;;12.80;99.90;;;;;;5048455;28;20726;-72
2022/07/09 04:05:36;;;;;;;4.07;3.55;;;12.90;99.90;;;;;;5029974;28;20765;-72
2022/07/09 04:08:08;;;;;;;4.15;3.75;;;12.90;99.90;;;;;;5051810;28;20048;-71
2022/07/09 04:10:39;;;;;;;5.47;3.58;;;12.90;99.90;;;;;;5049238;28;20048;-72
2022/07/09 04:13:11;;;;;;;4.78;3.72;;;12.90;99.90;;;;;;5032538;28;20668;-72
2022/07/09 04:15:43;;;;;;;5.13;3.40;;;12.90;99.90;;;;;;5038807;28;20055;-72
2022/07/09 04:18:17;;;;;;;5.63;3.38;;;13.00;99.90;;;;;;5033932;28;20497;-72
2022/07/09 04:20:49;;;;;;;2.83;2.58;;;13.00;99.90;;;;;;5049031;28;20555;-72
2022/07/09 04:23:21;;;;;;;6.43;2.50;;;13.00;99.90;;;;;;5020875;28;20037;-72
2022/07/09 04:25:53;;;;;;;3.80;2.15;;;13.00;99.90;;;;;;5049450;28;20528;-72
2022/07/09 04:28:25;;;;;;;2.60;2.10;;;13.00;99.90;;;;;;5047560;28;20404;-72
2022/07/09 04:30:56;;;;;;;4.95;2.25;;;13.00;99.90;;;;;;5051518;28;20048;-72
2022/07/09 04:33:28;;;;;;;2.55;2.10;;;13.00;99.90;;;;;;5029858;28;20497;-72
2022/07/09 04:36:00;;;;;;;3.92;2.05;;;13.00;99.90;;;;;;5049551;28;20140;-72
2022/07/09 04:38:32;;;;;;;9.88;4.53;;;13.00;99.90;;;;;;5033442;28;20060;-72
2022/07/09 04:41:04;;;;;;;11.30;5.47;;;13.00;99.90;;;;;;5048231;28;20049;-72
2022/07/09 04:43:36;;;;;;;9.52;4.65;;;13.00;99.90;;;;;;5033056;28;20519;-72
2022/07/09 04:46:07;;;;;;;9.55;5.50;;;13.00;99.90;;;;;;5049514;28;20048;-72
2022/07/09 04:48:39;;;;;;;7.15;4.60;;;13.00;99.90;;;;;;5033153;28;20080;-72
2022/07/09 04:51:11;;;;;;;5.40;4.30;;;13.00;99.90;;;;;;5048726;28;20396;-72
2022/07/09 04:53:43;;;;;;;4.57;4.18;;;13.00;99.90;;;;;;5024210;28;20037;-72
2022/07/09 04:56:14;;;;;;;7.40;4.20;;;13.10;99.90;;;;;;5045903;23;20046;-73
2022/07/09 04:58:52;;;;;;;5.28;3.95;;;13.10;99.90;;;;;;4976760;28;20081;-73
2022/07/09 05:01:23;;;;;;;6.55;4.22;;;13.20;99.90;;;;;;4978323;28;20043;-72
2022/07/09 05:03:56;;;;;;;8.65;5.03;;;13.20;99.90;;;;;;4976150;28;20121;-73
2022/07/09 05:06:28;;;;;;;13.77;6.20;;;13.20;99.90;;;;;;4978112;28;20069;-74
2022/07/09 05:09:00;;;;;;;7.75;4.45;;;13.20;99.90;;;;;;4995648;28;20045;-73
2022/07/09 05:11:33;;;;;;;9.23;4.55;;;13.30;99.90;;;;;;5033530;28;20039;-72
2022/07/09 05:14:05;;;;;;;7.30;4.85;;;13.40;99.90;;;;;;4993104;28;20042;-73
2022/07/09 05:16:36;;;;;;;9.20;4.45;;;13.40;99.90;;;;;;4998623;28;20038;-74
2022/07/09 05:19:03;;;;;;;9.95;4.97;;;13.50;99.90;;;;;;4999600;28;20048;-73
2022/07/09 05:21:36;;;;;;;11.18;5.10;;;13.60;99.90;;;;;;4999118;28;20077;-73
2022/07/09 05:24:08;;;;;;;9.60;5.18;;;13.60;99.90;;;;;;4995257;28;20057;-73
2022/07/09 05:26:39;;;;;;;8.43;4.53;;;13.70;99.90;;;;;;5019321;28;20153;-73
2022/07/09 05:29:12;;;;;;;11.10;4.97;;;13.70;99.90;;;;;;5007003;28;20050;-73
2022/07/09 05:31:43;;;;;;;9.40;4.90;;;13.80;99.90;;;;;;5009064;28;20050;-73
2022/07/09 05:34:16;;;;;;;7.07;4.60;;;13.90;99.90;;;;;;4997593;28;20046;-74
2022/07/09 05:36:47;;;;;;;6.95;4.38;;;13.90;99.90;;;;;;4994331;28;20074;-74
2022/07/09 05:39:19;;;;;;;4.50;3.80;;;14.00;99.90;;;;;;4998471;28;20046;-73
2022/07/09 05:41:51;;;;;;;4.70;3.80;;;14.00;99.90;;;;;;5036781;28;20069;-73
2022/07/09 05:44:22;;;;;;;7.38;3.70;;;14.10;99.90;;;;;;5011166;28;20070;-73
2022/07/09 05:46:54;;;;;;;9.27;5.05;;;14.20;99.90;;;;;;4986659;28;20056;-74
2022/07/09 05:49:26;;;;;;;10.73;5.93;;;14.30;99.90;;;;;;4997897;28;20058;-73
2022/07/09 05:51:58;;;;;;;12.65;6.20;;;14.40;99.90;;;;;;4991739;28;20905;-73
2022/07/09 05:54:29;;;;;;;17.52;7.40;;;14.50;99.90;;;;;;4988466;28;20049;-73
2022/07/09 05:57:01;;;;;;;16.55;7.10;;;14.60;99.90;;;;;;4988533;28;20510;-73
2022/07/09 05:59:33;;;;;;;15.00;6.40;;;14.60;99.90;;;;;;5028131;28;20042;-73
2022/07/09 06:02:06;;;;;;;12.38;4.38;;;14.70;99.90;;;;;;4988842;28;20494;-73
2022/07/09 06:04:38;;;;;;;5.80;3.45;;;14.80;99.90;;;;;;4988338;28;20394;-74
2022/07/09 06:07:10;;;;;;;3.92;3.20;;;14.90;99.90;;;;;;4989855;28;20035;-76
2022/07/09 06:09:41;;;;;;;5.15;3.85;;;15.10;99.90;;;;;;4995781;28;20045;-74
2022/07/09 06:12:13;;;;;;;6.57;4.53;;;15.10;99.90;;;;;;5005723;28;20053;-73
2022/07/09 06:14:45;;;;;;;6.85;4.15;;;15.20;99.90;;;;;;5005387;28;20406;-74
2022/07/09 06:17:17;;;;;;;7.47;4.75;;;15.20;99.90;;;;;;5024190;28;20039;-74
2022/07/09 06:19:48;;;;;;;7.35;3.90;;;15.20;99.90;;;;;;5031820;28;20589;-74
2022/07/09 06:22:20;;;;;;;6.65;4.47;;;15.30;99.90;;;;;;5008690;28;20401;-73
2022/07/09 06:24:52;;;;;;;5.13;2.65;;;15.20;99.90;;;;;;5006489;28;21129;-74
2022/07/09 06:27:24;;;;;;;5.57;3.28;;;15.30;99.90;;;;;;4995173;28;20038;-74
2022/07/09 06:29:56;;;;;;;4.85;3.58;;;15.40;99.90;;;;;;4992508;28;20121;-74
2022/07/09 06:32:27;;;;;;;4.45;3.03;;;15.50;99.90;;;;;;5024136;28;20056;-73
2022/07/09 06:34:59;;;;;;;7.10;3.13;;;15.60;99.90;;;;;;5002946;28;20061;-73
2022/07/09 06:37:31;;;;;;;6.03;3.80;;;15.70;99.90;;;;;;5016866;28;20072;-73
2022/07/09 06:40:04;;;;;;;4.75;2.72;;;15.80;99.90;;;;;;5003874;28;20142;-73
2022/07/09 06:42:36;;;;;;;5.20;2.70;;;15.80;99.90;;;;;;4990798;28;20136;-74
2022/07/09 06:45:20;;;;;;;5.80;2.67;;;15.90;99.90;;;;;;5015006;28;20035;-73
2022/07/09 06:47:47;;;;;;;7.75;2.45;;;16.00;99.90;;;;;;4993992;28;20081;-74
2022/07/09 06:50:19;;;;;;;4.28;2.63;;;16.10;99.90;;;;;;4999731;28;20031;-73
2022/07/09 06:52:51;;;;;;;5.43;3.15;;;16.10;99.90;;;;;;5004508;28;20037;-73
2022/07/09 06:55:23;;;;;;;5.65;2.83;;;16.20;99.90;;;;;;5000044;28;20125;-74
2022/07/09 06:57:55;;;;;;;5.25;2.97;;;16.20;99.90;;;;;;4995217;28;20545;-71
2022/07/09 07:00:27;;;;;;;4.50;2.72;;;16.30;99.90;;;;;;4995835;28;20042;-71
2022/07/09 07:02:59;;;;;;;4.85;2.65;;;16.40;99.90;;;;;;4995318;28;20046;-71
2022/07/09 07:05:31;;;;;;;3.33;2.43;;;16.50;99.90;;;;;;4993245;28;20057;-71
2022/07/09 07:08:03;;;;;;;3.60;2.88;;;16.60;99.90;;;;;;5003556;28;20281;-72
2022/07/09 07:10:35;;;;;;;4.95;2.80;;;16.60;99.90;;;;;;4996441;28;20113;-72
2022/07/09 07:13:07;;;;;;;3.60;2.80;;;16.70;99.90;;;;;;5022464;28;20042;-72
2022/07/09 07:15:38;;;;;;;5.57;3.25;;;16.70;99.90;;;;;;5018691;28;20046;-71
2022/07/09 07:18:10;;;;;;;4.03;2.75;;;16.80;99.90;;;;;;4996169;28;20042;-72
2022/07/09 07:20:45;;;;;;;7.20;3.25;;;17.00;99.90;;;;;;4993704;28;20050;-72
2022/07/09 07:23:17;;;;;;;5.15;2.70;;;17.10;99.90;;;;;;4997023;28;20073;-71
2022/07/09 07:25:48;;;;;;;3.00;2.20;;;17.20;99.90;;;;;;4992411;28;20415;-71
2022/07/09 07:28:20;;;;;;;4.05;2.30;;;17.30;99.90;;;;;;4991829;28;20038;-72
2022/07/09 07:30:52;;;;;;;5.05;2.50;;;17.40;99.90;;;;;;5005939;28;20044;-71
2022/07/09 07:33:19;;;;;;;5.18;2.67;;;17.50;99.90;;;;;;5014048;28;20049;-71
2022/07/09 07:35:50;;;;;;;4.25;2.30;;;17.50;99.90;;;;;;5034882;28;20514;-72
2022/07/09 07:38:27;;;;;;;5.32;2.63;;;17.60;99.90;;;;;;4997444;28;20047;-72
2022/07/09 07:40:58;;;;;;;4.90;2.47;;;17.70;99.90;;;;;;5008775;28;20548;-72
2022/07/09 07:43:31;;;;;;;4.75;2.72;;;17.80;99.90;;;;;;4986632;28;20066;-71
2022/07/09 07:45:57;;;;;;;6.43;2.50;;;17.90;99.90;;;;;;4985476;28;20049;-72
2022/07/09 07:48:30;;;;;;;4.68;2.42;;;18.00;99.90;;;;;;4997296;28;20042;-73
2022/07/09 07:51:03;;;;;;;6.38;1.88;;;18.10;99.90;;;;;;5031884;28;20042;-72
2022/07/09 07:53:31;;;;;;;5.72;3.00;;;18.30;99.90;;;;;;5012350;28;20050;-71
2022/07/09 07:56:04;;;;;;;2.42;2.00;;;18.40;99.90;;;;;;4994338;28;20050;-71
2022/07/09 07:58:36;;;;;;;6.15;1.88;;;18.50;99.90;;;;;;4997274;28;20054;-71
2022/07/09 08:01:02;;;;;;;2.97;2.03;;;18.60;99.90;;;;;;4993411;28;20410;-72
2022/07/09 08:03:34;;;;;;;4.43;1.90;;;18.70;99.90;;;;;;5003294;28;20315;-72
2022/07/09 08:06:07;;;;;;;5.65;2.40;;;18.80;99.90;;;;;;4991648;28;20539;-71
2022/07/09 08:08:34;;;;;;;3.20;1.45;;;19.00;99.90;;;;;;5003709;28;20486;-71
2022/07/09 08:11:06;;;;;;;6.82;1.90;;;19.20;99.90;;;;;;5013252;28;20065;-72
2022/07/09 08:13:39;;;;;;;4.95;2.28;;;19.20;99.90;;;;;;5013418;28;20042;-71
2022/07/09 08:16:11;;;;;;;3.13;1.85;;;19.40;99.90;;;;;;5001728;28;20052;-71
2022/07/09 08:18:42;;;;;;;7.40;1.90;;;19.50;99.90;;;;;;4989425;28;20037;-70
2022/07/09 08:21:15;;;;;;;4.97;1.85;;;19.50;99.90;;;;;;4994644;28;20053;-71
2022/07/09 08:23:53;;;;;;;4.13;1.70;;;19.60;99.90;;;;;;5011946;28;20077;-71
2022/07/09 08:26:26;;;;;;;3.20;1.73;;;19.70;99.90;;;;;;5030132;28;20034;-71
2022/07/09 08:28:58;;;;;;;6.32;2.33;;;19.70;99.90;;;;;;5007678;28;20044;-73
2022/07/09 08:31:30;;;;;;;4.15;2.00;;;19.80;99.90;;;;;;5012950;28;20413;-71
2022/07/09 08:33:56;;;;;;;3.13;1.70;;;19.90;99.90;;;;;;5011646;28;20037;-72
2022/07/09 08:36:28;;;;;;;4.20;1.58;;;20.00;99.90;;;;;;4987124;28;20061;-71
2022/07/09 08:39:00;;;;;;;3.17;1.38;;;20.10;99.90;;;;;;4997150;28;20057;-70
2022/07/09 08:41:32;;;;;;;2.78;1.60;;;20.20;99.90;;;;;;4990935;28;20049;-70
2022/07/09 08:44:04;;;;;;;4.43;1.67;;;20.20;99.90;;;;;;5002999;28;20086;-74
2022/07/09 08:46:34;;;;;;;4.43;1.70;;;20.40;99.90;;;;;;4982604;28;20046;-70
2022/07/09 08:49:07;;;;;;;4.05;1.90;;;20.50;99.90;;;;;;4995823;28;20058;-70
2022/07/09 08:51:42;;;;;;;3.33;2.35;;;20.60;99.90;;;;;;5022729;28;20046;-71
2022/07/09 08:54:15;;;;;;;5.55;2.08;;;20.80;99.90;;;;;;5001642;28;20038;-71
2022/07/09 08:56:47;;;;;;;;;;;21.00;99.90;;;;;;5023272;28;20135;-73
2022/07/09 08:59:19;;;;;;;6.88;1.70;;;21.10;99.90;;;;;;4998966;28;19928;-72
2022/07/09 09:01:51;;;;;;;5.03;1.65;;;21.20;99.90;;;;;;5030714;28;20041;-72
2022/07/09 09:04:24;;;;;;;3.72;1.55;;;21.30;99.90;;;;;;4997548;28;20042;-73
2022/07/09 09:06:51;;;;;;;2.45;1.50;;;21.30;99.90;;;;;;4999387;28;20034;-73
2022/07/09 09:09:19;;;;;;;2.88;1.42;;;21.30;99.90;;;;;;4997767;28;20058;-73
2022/07/09 09:11:52;;;;;;;3.50;1.67;;;21.40;99.90;;;;;;5005387;28;20048;-72
2022/07/09 09:14:25;;;;;;;2.70;1.40;;;21.40;99.90;;;;;;4999139;28;20057;-74
2022/07/09 09:16:52;;;;;;;4.13;1.65;;;21.40;99.90;;;;;;5013106;28;20054;-74
2022/07/09 09:19:26;;;;;;;2.63;1.40;;;21.50;99.90;;;;;;5019189;28;20046;-75
2022/07/09 09:21:58;;;;;;;6.13;2.00;;;21.40;99.90;;;;;;5036841;28;20053;-72
2022/07/09 09:24:29;;;;;;;1.85;1.40;;;21.20;99.90;;;;;;4991408;28;20138;-71
2022/07/09 09:27:02;;;;;;;4.43;1.60;;;21.10;99.90;;;;;;5015477;28;20146;-71
2022/07/09 09:29:39;;;;;;;3.33;1.47;;;21.00;99.90;;;;;;5012684;28;20045;-72
2022/07/09 09:32:12;;;;;;;3.05;1.33;;;20.80;99.90;;;;;;4993144;28;20093;-73
2022/07/09 09:34:41;;;;;;;2.60;1.45;;;20.70;99.90;;;;;;4999966;28;20110;-72
2022/07/09 09:37:13;;;;;;;3.38;1.58;;;20.60;99.90;;;;;;4994418;28;20495;-70
2022/07/09 09:39:51;;;;;;;6.88;1.75;;;20.60;99.90;;;;;;4988655;28;20061;-72
2022/07/09 09:42:27;;;;;;;5.25;1.67;;;20.50;99.90;;;;;;4995968;28;20034;-71
2022/07/09 09:45:00;;;;;;;4.60;1.60;;;20.50;99.90;;;;;;4995528;28;20041;-71
2022/07/09 09:47:32;;;;;;;4.00;1.55;;;20.50;99.90;;;;;;4990463;28;20862;-72
2022/07/09 09:50:06;;;;;;;3.03;1.48;;;20.50;99.90;;;;;;5004436;28;20041;-72
2022/07/09 09:52:36;;;;;;;2.20;1.30;;;20.70;99.90;;;;;;5021450;28;20057;-72
2022/07/09 09:55:09;;;;;;;3.20;1.30;;;20.90;99.90;;;;;;4997307;28;20053;-71
2022/07/09 09:57:41;;;;;;;3.17;1.42;;;21.20;99.90;;;;;;4986819;28;20042;-72
2022/07/09 10:00:15;;;;;;;4.18;1.08;;;21.40;99.90;;;;;;4994404;28;20077;-72
2022/07/09 10:02:50;;;;;;;5.22;2.47;;;21.60;99.90;;;;;;4996384;28;20054;-72
2022/07/09 10:05:21;;;;;;;4.03;1.08;;;21.80;99.90;;;;;;5026181;28;20046;-74
2022/07/09 10:07:53;;;;;;;2.85;1.10;;;22.10;99.90;;;;;;4994784;28;20050;-73
2022/07/09 10:10:25;;;;;;;4.68;1.38;;;22.20;98.90;;;;;;5033808;28;20061;-71
2022/07/09 10:12:57;;;;;;;1.45;0.95;;;22.40;99.00;;;;;;4999218;28;20072;-71
2022/07/09 10:15:33;;;;;;;4.65;1.15;;;22.50;98.50;;;;;;5001457;28;20041;-72
2022/07/09 10:18:11;;;;;;;1.85;1.10;;;22.50;97.90;;;;;;4995689;28;20049;-72
2022/07/09 10:20:43;;;;;;;3.33;0.95;;;22.70;97.30;;;;;;4999295;28;20046;-69
2022/07/09 10:23:26;;;;;;;1.80;0.93;;;22.80;96.40;;;;;;4999865;28;20077;-72
2022/07/09 10:25:57;;;;;;;2.78;1.10;;;22.70;95.70;;;;;;4987609;28;20043;-72
2022/07/09 10:28:39;;;;;;;2.88;1.00;;;22.70;95.40;;;;;;4989811;28;20122;-72
2022/07/09 10:31:17;;;;;;;2.42;1.00;;;22.70;94.30;;;;;;5005341;28;20113;-72
2022/07/09 10:34:00;;;;;;;1.52;0.80;;;22.80;94.50;;;;;;5003947;28;20398;-69
2022/07/09 10:36:32;;;;;;;1.25;0.80;;;22.90;94.70;;;;;;5000650;28;20125;-69
2022/07/09 10:38:59;;;;;;;2.25;1.00;;;23.10;94.10;;;;;;4999927;28;20426;-69
2022/07/09 10:41:31;;;;;;;1.85;1.40;;;23.20;93.20;;;;;;5008910;28;20049;-69
2022/07/09 10:43:58;;;;;;;1.92;0.70;;;23.40;93.60;;;;;;4999042;28;20101;-70
2022/07/09 10:46:29;;;;;;;2.67;0.95;;;23.50;92.40;;;;;;5004441;28;20073;-71
2022/07/09 10:49:02;;;;;;;1.27;0.80;;;23.70;92.20;;;;;;4990544;28;20485;-69
2022/07/09 10:51:28;;;;;;;1.83;0.80;;;23.60;91.80;;;;;;5001867;28;20387;-69
2022/07/09 10:54:00;;;;;;;2.30;0.90;;;23.70;92.40;;;;;;5034738;28;20048;-68
2022/07/09 10:56:35;;;;;;;2.28;1.02;;;23.50;92.40;;;;;;5002538;28;20057;-68
2022/07/09 10:59:01;;;;;;;2.85;0.80;;;23.20;92.30;;;;;;5006907;28;20498;-68
2022/07/09 11:01:33;;;;;;;1.83;0.90;;;23.00;91.60;;;;;;5024405;28;20060;-68
2022/07/09 11:04:05;;;;;;;3.40;0.90;;;22.90;91.30;;;;;;5002916;28;20054;-69
2022/07/09 11:06:49;;;;;;;1.77;0.75;;;23.00;90.50;;;;;;4981705;28;20046;-68
2022/07/09 11:09:21;;;;;;;1.02;0.80;;;23.30;90.00;;;;;;5002602;28;20053;-69
2022/07/09 11:11:53;;;;;;;3.17;0.70;;;23.60;90.90;;;;;;5000966;28;20109;-69
2022/07/09 11:14:25;;;;;;;1.25;0.77;;;23.80;89.60;;;;;;4999440;23;20682;-87
2022/07/09 11:16:56;;;;;;;0.88;0.65;;;24.10;89.00;;;;;;4980617;28;20038;-88
2022/07/09 11:19:30;;;;;;;2.60;1.10;;;24.10;86.00;;;;;;4992821;28;20042;-87
2022/07/09 11:22:03;;;;;;;2.00;0.90;;;24.10;87.50;;;;;;5012896;28;20194;-89
2022/07/09 11:24:30;;;;;;;2.40;0.90;;;24.10;87.80;;;;;;5013592;28;20170;-87
2022/07/09 11:27:07;;;;;;;1.05;0.70;;;24.20;88.40;;;;;;4996086;28;20056;-88
2022/07/09 11:29:35;;;;;;;1.38;0.90;;;24.30;87.60;;;;;;4995701;28;20061;-88
2022/07/09 11:32:03;;;;;;;2.58;0.70;;;24.40;85.60;;;;;;5012940;28;20042;-87
2022/07/09 11:34:30;;;;;;;1.30;0.80;;;24.30;84.10;;;;;;4995936;28;20139;-87
2022/07/09 11:36:59;;;;;;;1.83;0.77;;;24.20;83.40;;;;;;4997319;28;20140;-87
2022/07/09 11:39:33;;;;;;;3.67;2.03;;;24.20;82.80;;;;;;5011801;23;20792;-72
2022/07/09 11:42:05;;;;;;;1.35;0.80;;;24.10;83.50;;;;;;5032254;28;20037;-71
2022/07/09 11:44:37;;;;;;;3.30;0.98;;;24.00;83.70;;;;;;5014094;28;20025;-71
2022/07/09 11:47:10;;;;;;;2.10;0.77;;;24.10;83.90;;;;;;5028517;28;20500;-72
2022/07/09 11:49:44;;;;;;;1.55;0.85;;;24.10;80.80;;;;;;5019632;28;20057;-71
2022/07/09 11:52:20;;;;;;;1.20;0.85;;;24.30;81.30;;;;;;5010831;28;20045;-72
2022/07/09 11:54:56;;;;;;;1.70;0.80;;;24.50;81.30;;;;;;5028862;28;20501;-72
2022/07/09 11:57:29;;;;;;;1.58;0.80;;;24.60;81.00;;;;;;5029936;28;20080;-72
2022/07/09 12:00:05;;;;;;;1.15;0.70;;;24.60;81.10;;;;;;5036101;28;20595;-71
2022/07/09 12:02:39;;;;;;;1.17;0.70;;;24.50;82.40;;;;;;5012262;28;20131;-71
2022/07/09 12:05:11;;;;;;;2.33;0.82;;;24.40;82.90;;;;;;5029435;28;20072;-71
2022/07/09 12:07:51;;;;;;;2.03;0.80;;;24.30;82.50;;;;;;5023505;28;20065;-71
2022/07/09 12:10:32;;;;;;;3.05;0.93;;;24.40;79.50;;;;;;5027550;28;20460;-72
2022/07/09 12:13:05;;;;;;;1.50;0.60;;;24.50;79.60;;;;;;5006955;28;20110;-71
2022/07/09 12:15:37;;;;;;;1.92;0.70;;;24.50;81.00;;;;;;5010543;28;20041;-71
2022/07/09 12:18:09;;;;;;;1.60;0.70;;;24.50;78.80;;;;;;5037137;28;20044;-72
2022/07/09 12:20:41;;;;;;;0.98;0.77;;;24.60;77.70;;;;;;5018119;28;20045;-72
2022/07/09 12:23:12;;;;;;;2.33;0.80;;;24.60;77.70;;;;;;5029361;28;20041;-72
2022/07/09 12:25:44;;;;;;;1.63;0.73;;;24.90;77.20;;;;;;5032186;28;20513;-72
2022/07/09 12:28:16;;;;;;;4.88;0.93;;;25.20;76.30;;;;;;5039793;28;20379;-71
2022/07/09 12:30:49;;;;;;;1.48;0.70;;;25.50;75.80;;;;;;5017777;28;20075;-71
2022/07/09 12:33:21;;;;;;;2.15;0.73;;;25.50;73.40;;;;;;5032238;28;20037;-72
2022/07/09 12:35:52;;;;;;;1.60;0.73;;;25.60;73.70;;;;;;5028827;28;20042;-71
2022/07/09 12:38:24;;;;;;;0.98;0.70;;;25.60;74.20;;;;;;5031349;28;20050;-71
2022/07/09 12:40:56;;;;;;;1.25;0.63;;;25.50;73.00;;;;;;5029356;28;20033;-71
2022/07/09 12:43:23;;;;;;;1.58;0.60;;;25.40;73.00;;;;;;5029405;28;20513;-71
2022/07/09 12:45:54;;;;;;;0.82;0.57;;;25.30;73.10;;;;;;5024112;28;20052;-72
2022/07/09 12:48:26;;;;;;;1.48;0.90;;;25.10;72.20;;;;;;5008984;28;20038;-71
2022/07/09 12:50:58;;;;;;;0.95;0.80;;;24.90;72.60;;;;;;5027294;28;20068;-72
2022/07/09 12:53:24;;;;;;;1.27;0.70;;;24.80;72.90;;;;;;5012546;28;20038;-71
2022/07/09 12:55:56;;;;;;;0.98;0.60;;;24.70;72.50;;;;;;5025805;28;20037;-71
2022/07/09 12:58:28;;;;;;;1.95;0.60;;;24.80;71.10;;;;;;5016190;28;20056;-71
2022/07/09 13:00:59;;;;;;;2.45;0.80;;;24.90;70.70;;;;;;5028034;28;20047;-72
2022/07/09 13:03:31;;;;;;;1.65;0.73;;;25.30;71.50;;;;;;5027738;28;20401;-71
2022/07/09 13:06:03;;;;;;;0.88;0.65;;;25.60;69.00;;;;;;5028432;28;20051;-71
2022/07/09 13:08:35;;;;;;;1.55;0.70;;;25.90;68.60;;;;;;5025509;28;20421;-71
2022/07/09 13:11:06;;;;;;;1.70;0.70;;;26.10;68.10;;;;;;5025210;28;20034;-71
2022/07/09 13:13:38;;;;;;;2.20;0.82;;;26.10;68.30;;;;;;5014288;28;20041;-71